createdAt,value
2023-03-04T00:29:51.791Z,21.50
2023-03-04T00:39:55.339Z,21.40
2023-03-04T00:49:59.013Z,19.70
2023-03-04T01:00:07.589Z,19.40
2023-03-04T01:10:15.316Z,19.60
2023-03-04T01:20:19.277Z,19.70
2023-03-04T01:30:26.283Z,18.40
2023-03-04T01:40:31.601Z,18.90
2023-03-04T01:50:36.176Z,17.20
2023-03-04T02:00:41.894Z,16.30
2023-03-04T02:10:47.134Z,15.80
2023-03-04T02:21:19.251Z,14.80
2023-03-04T02:31:34.035Z,15.10
2023-03-04T02:41:38.905Z,15.80
2023-03-04T02:51:42.873Z,14.90
2023-03-04T03:01:50.337Z,13.90
2023-03-04T03:11:54.118Z,15.30
2023-03-04T03:21:58.293Z,13.40
2023-03-04T03:32:03.381Z,14.30
2023-03-04T03:42:07.160Z,16.10
2023-03-04T03:52:11.674Z,15.50
2023-03-04T04:02:18.154Z,14.90
2023-03-04T04:12:21.784Z,15.20
2023-03-04T04:22:27.131Z,15.10
2023-03-04T04:32:33.329Z,15.10
2023-03-04T04:42:37.283Z,14.50
2023-03-04T04:52:43.901Z,13.30
2023-03-04T05:03:25.558Z,13.60
2023-03-04T05:13:30.289Z,13.00
2023-03-04T05:23:39.265Z,13.90
2023-03-04T05:33:42.840Z,14.00
2023-03-04T05:43:46.418Z,13.30
2023-03-04T05:53:50.945Z,12.10
2023-03-04T06:03:56.315Z,10.90
2023-03-04T06:13:59.905Z,11.40
2023-03-04T06:24:03.534Z,11.60
2023-03-04T06:34:12.139Z,10.60
2023-03-04T06:44:15.779Z,10.20
2023-03-04T06:54:20.401Z,9.10
2023-03-04T07:04:26.454Z,9.60
2023-03-04T07:14:30.191Z,8.30
2023-03-04T07:24:33.709Z,8.40
2023-03-04T07:34:37.569Z,6.20
2023-03-04T07:44:44.196Z,6.30
2023-03-04T07:54:48.158Z,15.60
2023-03-04T08:04:51.784Z,5.90
2023-03-04T08:14:57.198Z,6.00
2023-03-04T08:25:00.827Z,6.20
2023-03-04T08:35:04.771Z,5.00
2023-03-04T08:45:12.343Z,10.00
2023-03-04T08:55:16.074Z,2.80
2023-03-04T09:05:19.776Z,3.00
2023-03-04T09:15:25.837Z,3.50
2023-03-04T09:25:29.566Z,4.20
2023-03-04T09:35:33.327Z,4.30
2023-03-04T09:45:50.236Z,2.70
2023-03-04T09:56:02.352Z,4.40
2023-03-04T10:06:10.582Z,2.50
2023-03-04T10:16:20.628Z,2.80
2023-03-04T10:26:31.249Z,2.20
2023-03-04T10:36:46.883Z,2.70
2023-03-04T10:46:57.897Z,9.50
2023-03-04T10:57:16.884Z,4.70
2023-03-04T11:07:28.038Z,3.30
2023-03-04T11:17:48.513Z,2.90
2023-03-04T11:28:01.182Z,4.50
2023-03-04T11:38:19.963Z,4.60
2023-03-04T11:48:47.015Z,2.30
2023-03-04T11:59:17.818Z,3.20
2023-03-04T12:10:05.601Z,3.70
2023-03-04T12:20:29.663Z,4.20
2023-03-04T12:31:18.952Z,1.90
2023-03-04T12:41:52.582Z,3.90
2023-03-04T12:52:19.754Z,4.20
2023-03-04T13:03:05.677Z,3.30
2023-03-04T13:13:38.103Z,2.70
2023-03-04T13:23:47.636Z,2.50
2023-03-04T13:33:58.960Z,3.90
2023-03-04T13:44:34.485Z,1.80
2023-03-04T13:54:38.275Z,3.40
2023-03-04T14:04:44.691Z,2.90
2023-03-04T14:14:52.690Z,3.20
2023-03-04T14:25:14.070Z,2.10
2023-03-04T14:35:29.687Z,2.30
2023-03-04T14:45:36.429Z,2.30
2023-03-04T14:55:40.235Z,2.70
2023-03-04T15:05:48.623Z,1.50
2023-03-04T15:16:01.524Z,2.40
2023-03-04T15:26:06.151Z,2.30
2023-03-04T15:36:15.216Z,2.40
2023-03-04T15:46:19.653Z,2.60
2023-03-04T15:56:25.771Z,2.70
2023-03-04T16:06:32.512Z,2.70
2023-03-04T16:16:36.207Z,2.80
2023-03-04T16:26:39.848Z,2.30
2023-03-04T16:36:45.337Z,12.40
2023-03-04T16:46:49.176Z,3.50
2023-03-04T16:56:52.851Z,3.90
2023-03-04T17:06:59.395Z,4.20
2023-03-04T17:17:07.611Z,4.00
2023-03-04T17:27:12.108Z,5.70
2023-03-04T17:37:16.284Z,3.70
2023-03-04T17:47:22.836Z,3.90
2023-03-04T17:57:26.430Z,3.80
2023-03-04T18:07:30.281Z,4.30
2023-03-04T18:17:33.879Z,4.80
2023-03-04T18:27:40.091Z,4.10
2023-03-04T18:37:45.590Z,4.10
2023-03-04T18:47:53.512Z,5.10
2023-03-04T18:58:06.616Z,4.10
2023-03-04T19:08:10.458Z,3.80
2023-03-04T19:18:14.115Z,4.60
2023-03-04T19:28:17.912Z,4.90
2023-03-04T19:38:22.711Z,3.80
2023-03-04T19:48:27.186Z,2.80
2023-03-04T19:58:31.361Z,3.00
2023-03-04T20:08:42.371Z,2.40
2023-03-04T20:18:46.175Z,3.20
2023-03-04T20:28:52.602Z,2.70
2023-03-04T20:39:04.216Z,2.20
2023-03-04T20:49:15.351Z,2.60
2023-03-04T20:59:21.350Z,2.30
2023-03-04T21:09:28.468Z,2.40
2023-03-04T21:19:38.399Z,4.40
2023-03-04T21:29:43.399Z,4.90
2023-03-04T21:39:47.254Z,5.40
2023-03-04T21:49:53.892Z,4.80
2023-03-04T21:59:57.480Z,5.50
2023-03-04T22:10:03.311Z,6.90
2023-03-04T22:20:10.041Z,6.70
2023-03-04T22:30:18.513Z,7.30
2023-03-04T22:40:22.162Z,14.80
2023-03-04T22:50:27.642Z,7.80
2023-03-04T23:00:34.331Z,6.10
2023-03-04T23:10:38.161Z,5.10
2023-03-04T23:20:43.592Z,6.20
2023-03-04T23:30:47.451Z,8.30
2023-03-04T23:40:56.318Z,6.40
2023-03-04T23:51:03.367Z,7.00
